Congers, New York
Current Conditions -  °F | °C
As of 12:56 PM on Sunday 21 Dec 2014 (Local Time) from KHPN Reporting Station
Light Snow Light Snow  
Wind Chill: 24°   Ceiling: 1400
Heat Index: 32°   Visibility: 1mi
Dew Point: 29°   Wind: 9mph
Humidity: 88%   Direction: 310°NW
Pressure: 30.26"   Gusts: NA
Location:  41.15°N, 73.95°W
Report Text: KHPN 211756Z 31008KT 1SM R16/6000VP6000FT -SN FEW008 OVC014 00/M02 A3026 RMK AO2 SNB26 SLP255 P0000 60000 T00001017 10006 21017 58010
Loading
Personal Weather Stations






























Interactive Weather Map New forecast layout! Learn more

10-Day Weather Forecast

Advertisements
Track Severe Weather on mobile